sensor_id;sensor_type;location;lat;lon;timestamp;P1;durP1;ratioP1;P2;durP2;ratioP2
2944;SDS011;1482;51.398;7.128;2023-12-22T00:02:15;14.27;;;1.70;;
2944;SDS011;1482;51.398;7.128;2023-12-22T00:04:41;8.03;;;2.00;;
2944;SDS011;1482;51.398;7.128;2023-12-22T00:07:07;3.63;;;1.50;;
2944;SDS011;1482;51.398;7.128;2023-12-22T00:09:32;7.17;;;1.70;;
2944;SDS011;1482;51.398;7.128;2023-12-22T00:11:58;16.73;;;2.60;;
2944;SDS011;1482;51.398;7.128;2023-12-22T00:14:23;10.30;;;1.73;;
2944;SDS011;1482;51.398;7.128;2023-12-22T00:16:49;5.97;;;1.57;;
2944;SDS011;1482;51.398;7.128;2023-12-22T00:19:14;8.20;;;1.70;;
2944;SDS011;1482;51.398;7.128;2023-12-22T00:21:40;8.00;;;1.50;;
2944;SDS011;1482;51.398;7.128;2023-12-22T00:24:05;13.80;;;1.77;;
2944;SDS011;1482;51.398;7.128;2023-12-22T00:26:31;8.63;;;1.40;;
2944;SDS011;1482;51.398;7.128;2023-12-22T00:28:57;6.73;;;1.67;;
2944;SDS011;1482;51.398;7.128;2023-12-22T00:31:22;3.93;;;2.00;;
2944;SDS011;1482;51.398;7.128;2023-12-22T00:33:48;6.47;;;1.53;;
2944;SDS011;1482;51.398;7.128;2023-12-22T00:36:14;9.80;;;1.70;;
2944;SDS011;1482;51.398;7.128;2023-12-22T00:38:40;7.07;;;1.40;;
2944;SDS011;1482;51.398;7.128;2023-12-22T00:41:05;4.53;;;1.20;;
2944;SDS011;1482;51.398;7.128;2023-12-22T00:43:31;2.90;;;1.70;;
2944;SDS011;1482;51.398;7.128;2023-12-22T00:45:56;2.70;;;1.47;;
2944;SDS011;1482;51.398;7.128;2023-12-22T00:48:22;8.80;;;1.50;;
2944;SDS011;1482;51.398;7.128;2023-12-22T00:50:48;7.07;;;1.93;;
2944;SDS011;1482;51.398;7.128;2023-12-22T00:53:13;7.23;;;1.57;;
2944;SDS011;1482;51.398;7.128;2023-12-22T00:55:39;9.10;;;1.87;;
2944;SDS011;1482;51.398;7.128;2023-12-22T00:58:05;9.83;;;1.60;;
2944;SDS011;1482;51.398;7.128;2023-12-22T01:00:30;5.30;;;1.83;;
2944;SDS011;1482;51.398;7.128;2023-12-22T01:02:56;12.20;;;2.10;;
2944;SDS011;1482;51.398;7.128;2023-12-22T01:05:21;3.33;;;1.53;;
2944;SDS011;1482;51.398;7.128;2023-12-22T01:07:47;10.43;;;3.00;;
2944;SDS011;1482;51.398;7.128;2023-12-22T01:10:12;16.13;;;2.97;;
2944;SDS011;1482;51.398;7.128;2023-12-22T01:12:38;11.10;;;2.43;;
2944;SDS011;1482;51.398;7.128;2023-12-22T01:15:04;8.40;;;3.13;;
2944;SDS011;1482;51.398;7.128;2023-12-22T01:17:30;17.57;;;2.37;;
2944;SDS011;1482;51.398;7.128;2023-12-22T01:19:55;8.20;;;2.37;;
2944;SDS011;1482;51.398;7.128;2023-12-22T01:22:21;15.53;;;3.93;;
2944;SDS011;1482;51.398;7.128;2023-12-22T01:24:47;8.90;;;2.30;;
2944;SDS011;1482;51.398;7.128;2023-12-22T01:27:13;7.50;;;1.80;;
2944;SDS011;1482;51.398;7.128;2023-12-22T01:29:39;10.70;;;1.97;;
2944;SDS011;1482;51.398;7.128;2023-12-22T01:32:04;5.40;;;1.63;;
2944;SDS011;1482;51.398;7.128;2023-12-22T01:34:30;4.40;;;1.50;;
2944;SDS011;1482;51.398;7.128;2023-12-22T01:36:56;2.20;;;0.83;;
2944;SDS011;1482;51.398;7.128;2023-12-22T01:39:22;6.00;;;1.10;;
2944;SDS011;1482;51.398;7.128;2023-12-22T01:41:47;2.97;;;1.20;;
2944;SDS011;1482;51.398;7.128;2023-12-22T01:44:13;3.30;;;1.20;;
2944;SDS011;1482;51.398;7.128;2023-12-22T01:46:38;3.20;;;1.50;;
2944;SDS011;1482;51.398;7.128;2023-12-22T01:49:04;3.93;;;0.80;;
2944;SDS011;1482;51.398;7.128;2023-12-22T01:51:33;4.90;;;1.43;;
2944;SDS011;1482;51.398;7.128;2023-12-22T01:54:01;2.10;;;0.87;;
2944;SDS011;1482;51.398;7.128;2023-12-22T01:56:26;2.80;;;0.97;;
2944;SDS011;1482;51.398;7.128;2023-12-22T01:58:53;6.60;;;1.10;;
2944;SDS011;1482;51.398;7.128;2023-12-22T02:01:23;2.60;;;0.80;;
2944;SDS011;1482;51.398;7.128;2023-12-22T02:03:50;5.50;;;1.53;;
2944;SDS011;1482;51.398;7.128;2023-12-22T02:06:17;1.10;;;0.73;;
2944;SDS011;1482;51.398;7.128;2023-12-22T02:08:43;4.50;;;1.20;;
2944;SDS011;1482;51.398;7.128;2023-12-22T02:11:13;3.20;;;1.63;;
2944;SDS011;1482;51.398;7.128;2023-12-22T02:13:40;6.53;;;1.30;;
2944;SDS011;1482;51.398;7.128;2023-12-22T02:16:09;5.33;;;1.10;;
2944;SDS011;1482;51.398;7.128;2023-12-22T02:18:43;3.67;;;1.37;;
2944;SDS011;1482;51.398;7.128;2023-12-22T02:21:11;5.50;;;1.57;;
2944;SDS011;1482;51.398;7.128;2023-12-22T02:23:37;10.63;;;2.50;;
2944;SDS011;1482;51.398;7.128;2023-12-22T02:26:06;13.03;;;2.27;;
2944;SDS011;1482;51.398;7.128;2023-12-22T02:28:37;5.90;;;1.53;;
2944;SDS011;1482;51.398;7.128;2023-12-22T02:33:33;14.97;;;2.00;;
2944;SDS011;1482;51.398;7.128;2023-12-22T02:36:04;7.43;;;1.73;;
2944;SDS011;1482;51.398;7.128;2023-12-22T02:38:32;6.20;;;1.93;;
2944;SDS011;1482;51.398;7.128;2023-12-22T02:40:59;5.03;;;1.13;;
2944;SDS011;1482;51.398;7.128;2023-12-22T02:43:27;6.97;;;2.00;;
2944;SDS011;1482;51.398;7.128;2023-12-22T02:45:53;7.13;;;1.87;;
2944;SDS011;1482;51.398;7.128;2023-12-22T02:48:19;10.93;;;1.73;;
2944;SDS011;1482;51.398;7.128;2023-12-22T02:50:44;3.93;;;1.63;;
2944;SDS011;1482;51.398;7.128;2023-12-22T02:53:10;7.63;;;2.33;;
2944;SDS011;1482;51.398;7.128;2023-12-22T02:55:35;8.80;;;2.20;;
2944;SDS011;1482;51.398;7.128;2023-12-22T02:58:01;8.23;;;1.90;;
2944;SDS011;1482;51.398;7.128;2023-12-22T03:00:26;6.43;;;3.13;;
2944;SDS011;1482;51.398;7.128;2023-12-22T03:02:52;12.77;;;2.40;;
2944;SDS011;1482;51.398;7.128;2023-12-22T03:05:17;8.70;;;2.60;;
2944;SDS011;1482;51.398;7.128;2023-12-22T03:07:43;12.43;;;2.90;;
2944;SDS011;1482;51.398;7.128;2023-12-22T03:10:08;7.87;;;2.23;;
2944;SDS011;1482;51.398;7.128;2023-12-22T03:12:34;9.53;;;2.83;;
2944;SDS011;1482;51.398;7.128;2023-12-22T03:14:59;6.93;;;1.60;;
2944;SDS011;1482;51.398;7.128;2023-12-22T03:17:25;3.90;;;1.87;;
2944;SDS011;1482;51.398;7.128;2023-12-22T03:19:50;9.67;;;1.93;;
2944;SDS011;1482;51.398;7.128;2023-12-22T03:22:16;9.20;;;2.30;;
2944;SDS011;1482;51.398;7.128;2023-12-22T03:24:41;12.43;;;2.50;;
2944;SDS011;1482;51.398;7.128;2023-12-22T03:27:07;8.37;;;3.33;;
2944;SDS011;1482;51.398;7.128;2023-12-22T03:29:33;6.57;;;2.00;;
2944;SDS011;1482;51.398;7.128;2023-12-22T03:31:58;3.87;;;2.07;;
2944;SDS011;1482;51.398;7.128;2023-12-22T03:34:24;8.53;;;2.97;;
2944;SDS011;1482;51.398;7.128;2023-12-22T03:36:49;7.63;;;2.13;;
2944;SDS011;1482;51.398;7.128;2023-12-22T03:39:15;3.77;;;2.17;;
2944;SDS011;1482;51.398;7.128;2023-12-22T03:41:41;9.97;;;2.93;;
2944;SDS011;1482;51.398;7.128;2023-12-22T03:44:06;4.63;;;1.83;;
2944;SDS011;1482;51.398;7.128;2023-12-22T03:46:32;4.73;;;2.00;;
2944;SDS011;1482;51.398;7.128;2023-12-22T03:48:58;10.47;;;2.23;;
2944;SDS011;1482;51.398;7.128;2023-12-22T03:51:23;11.40;;;2.40;;
2944;SDS011;1482;51.398;7.128;2023-12-22T03:53:49;12.40;;;3.50;;
2944;SDS011;1482;51.398;7.128;2023-12-22T03:56:14;8.93;;;2.67;;
2944;SDS011;1482;51.398;7.128;2023-12-22T03:58:40;7.07;;;2.10;;
2944;SDS011;1482;51.398;7.128;2023-12-22T04:01:05;14.10;;;4.47;;
2944;SDS011;1482;51.398;7.128;2023-12-22T04:03:34;11.10;;;6.03;;
2944;SDS011;1482;51.398;7.128;2023-12-22T04:06:03;9.43;;;2.30;;
2944;SDS011;1482;51.398;7.128;2023-12-22T04:08:28;10.97;;;3.63;;
2944;SDS011;1482;51.398;7.128;2023-12-22T04:10:54;23.60;;;6.00;;
2944;SDS011;1482;51.398;7.128;2023-12-22T04:13:20;7.57;;;2.87;;
2944;SDS011;1482;51.398;7.128;2023-12-22T04:15:45;12.13;;;3.60;;
2944;SDS011;1482;51.398;7.128;2023-12-22T04:18:11;11.50;;;3.80;;
2944;SDS011;1482;51.398;7.128;2023-12-22T04:20:36;12.10;;;2.77;;
2944;SDS011;1482;51.398;7.128;2023-12-22T04:23:02;17.47;;;3.30;;
2944;SDS011;1482;51.398;7.128;2023-12-22T04:25:27;10.03;;;2.63;;
2944;SDS011;1482;51.398;7.128;2023-12-22T04:27:53;12.53;;;2.77;;
2944;SDS011;1482;51.398;7.128;2023-12-22T04:30:19;4.73;;;2.10;;
2944;SDS011;1482;51.398;7.128;2023-12-22T04:32:44;13.70;;;2.33;;
2944;SDS011;1482;51.398;7.128;2023-12-22T04:35:10;5.73;;;2.60;;
2944;SDS011;1482;51.398;7.128;2023-12-22T04:37:35;10.97;;;2.30;;
2944;SDS011;1482;51.398;7.128;2023-12-22T04:40:01;8.73;;;1.73;;
2944;SDS011;1482;51.398;7.128;2023-12-22T04:42:26;10.87;;;2.50;;
2944;SDS011;1482;51.398;7.128;2023-12-22T04:44:53;20.67;;;3.30;;
2944;SDS011;1482;51.398;7.128;2023-12-22T04:47:18;12.63;;;2.10;;
2944;SDS011;1482;51.398;7.128;2023-12-22T04:49:44;4.27;;;2.03;;
2944;SDS011;1482;51.398;7.128;2023-12-22T04:52:10;17.43;;;3.13;;
2944;SDS011;1482;51.398;7.128;2023-12-22T04:54:36;9.23;;;3.53;;
2944;SDS011;1482;51.398;7.128;2023-12-22T04:57:02;15.33;;;3.03;;
2944;SDS011;1482;51.398;7.128;2023-12-22T04:59:28;10.33;;;2.93;;
2944;SDS011;1482;51.398;7.128;2023-12-22T05:01:54;8.37;;;4.53;;
2944;SDS011;1482;51.398;7.128;2023-12-22T05:04:19;9.10;;;3.40;;
2944;SDS011;1482;51.398;7.128;2023-12-22T05:06:45;21.90;;;5.10;;
2944;SDS011;1482;51.398;7.128;2023-12-22T05:09:11;10.27;;;3.07;;
2944;SDS011;1482;51.398;7.128;2023-12-22T05:11:37;4.30;;;2.50;;
2944;SDS011;1482;51.398;7.128;2023-12-22T05:14:03;9.03;;;3.00;;
2944;SDS011;1482;51.398;7.128;2023-12-22T05:16:28;10.50;;;2.87;;
2944;SDS011;1482;51.398;7.128;2023-12-22T05:18:56;5.53;;;1.90;;
2944;SDS011;1482;51.398;7.128;2023-12-22T05:21:24;8.80;;;2.50;;
2944;SDS011;1482;51.398;7.128;2023-12-22T05:23:50;16.23;;;2.57;;
2944;SDS011;1482;51.398;7.128;2023-12-22T05:26:16;8.80;;;2.00;;
2944;SDS011;1482;51.398;7.128;2023-12-22T05:28:43;7.20;;;1.83;;
2944;SDS011;1482;51.398;7.128;2023-12-22T05:31:09;1.60;;;1.10;;
2944;SDS011;1482;51.398;7.128;2023-12-22T05:33:34;3.63;;;1.43;;
2944;SDS011;1482;51.398;7.128;2023-12-22T05:36:00;5.03;;;1.90;;
2944;SDS011;1482;51.398;7.128;2023-12-22T05:38:25;8.00;;;1.33;;
2944;SDS011;1482;51.398;7.128;2023-12-22T05:40:51;4.73;;;1.27;;
2944;SDS011;1482;51.398;7.128;2023-12-22T05:43:16;6.60;;;1.20;;
2944;SDS011;1482;51.398;7.128;2023-12-22T05:45:42;9.90;;;1.90;;
2944;SDS011;1482;51.398;7.128;2023-12-22T05:48:07;5.77;;;1.77;;
2944;SDS011;1482;51.398;7.128;2023-12-22T05:50:33;6.40;;;1.73;;
2944;SDS011;1482;51.398;7.128;2023-12-22T05:52:58;5.87;;;1.80;;
2944;SDS011;1482;51.398;7.128;2023-12-22T05:55:24;7.70;;;2.20;;
2944;SDS011;1482;51.398;7.128;2023-12-22T05:57:49;15.37;;;2.43;;
2944;SDS011;1482;51.398;7.128;2023-12-22T06:00:15;13.07;;;3.30;;
2944;SDS011;1482;51.398;7.128;2023-12-22T06:02:42;3.40;;;1.77;;
2944;SDS011;1482;51.398;7.128;2023-12-22T06:05:07;4.20;;;1.80;;
2944;SDS011;1482;51.398;7.128;2023-12-22T06:07:33;3.53;;;1.77;;
2944;SDS011;1482;51.398;7.128;2023-12-22T06:09:58;7.47;;;2.20;;
2944;SDS011;1482;51.398;7.128;2023-12-22T06:12:24;5.63;;;2.23;;
2944;SDS011;1482;51.398;7.128;2023-12-22T06:14:50;5.53;;;1.93;;
2944;SDS011;1482;51.398;7.128;2023-12-22T06:17:15;12.60;;;1.90;;
2944;SDS011;1482;51.398;7.128;2023-12-22T06:19:41;3.13;;;1.47;;
2944;SDS011;1482;51.398;7.128;2023-12-22T06:22:06;7.27;;;2.10;;
2944;SDS011;1482;51.398;7.128;2023-12-22T06:24:34;5.90;;;1.80;;
2944;SDS011;1482;51.398;7.128;2023-12-22T06:27:00;12.10;;;2.20;;
2944;SDS011;1482;51.398;7.128;2023-12-22T06:29:26;7.33;;;1.77;;
2944;SDS011;1482;51.398;7.128;2023-12-22T06:31:52;9.60;;;1.90;;
2944;SDS011;1482;51.398;7.128;2023-12-22T06:34:17;7.13;;;1.70;;
2944;SDS011;1482;51.398;7.128;2023-12-22T06:36:43;9.10;;;2.37;;
2944;SDS011;1482;51.398;7.128;2023-12-22T06:39:08;15.93;;;2.60;;
2944;SDS011;1482;51.398;7.128;2023-12-22T06:41:34;12.23;;;2.13;;
2944;SDS011;1482;51.398;7.128;2023-12-22T06:43:59;7.27;;;1.90;;
2944;SDS011;1482;51.398;7.128;2023-12-22T06:46:25;7.13;;;1.90;;
2944;SDS011;1482;51.398;7.128;2023-12-22T06:48:52;23.03;;;3.70;;
2944;SDS011;1482;51.398;7.128;2023-12-22T06:51:19;13.73;;;2.93;;
2944;SDS011;1482;51.398;7.128;2023-12-22T06:53:46;11.00;;;2.50;;
2944;SDS011;1482;51.398;7.128;2023-12-22T06:56:18;6.93;;;2.30;;
2944;SDS011;1482;51.398;7.128;2023-12-22T06:58:51;11.93;;;3.10;;
2944;SDS011;1482;51.398;7.128;2023-12-22T07:01:19;14.30;;;2.70;;
2944;SDS011;1482;51.398;7.128;2023-12-22T07:03:46;5.67;;;2.63;;
2944;SDS011;1482;51.398;7.128;2023-12-22T07:06:13;9.93;;;2.53;;
2944;SDS011;1482;51.398;7.128;2023-12-22T07:08:42;18.63;;;3.03;;
2944;SDS011;1482;51.398;7.128;2023-12-22T07:11:08;9.90;;;3.13;;
2944;SDS011;1482;51.398;7.128;2023-12-22T07:13:37;9.60;;;3.13;;
2944;SDS011;1482;51.398;7.128;2023-12-22T07:16:03;15.50;;;3.53;;
2944;SDS011;1482;51.398;7.128;2023-12-22T07:18:30;12.57;;;3.20;;
2944;SDS011;1482;51.398;7.128;2023-12-22T07:20:56;10.83;;;2.37;;
2944;SDS011;1482;51.398;7.128;2023-12-22T07:23:22;10.40;;;3.27;;
2944;SDS011;1482;51.398;7.128;2023-12-22T07:25:48;9.47;;;4.27;;
2944;SDS011;1482;51.398;7.128;2023-12-22T07:28:13;8.20;;;4.13;;
2944;SDS011;1482;51.398;7.128;2023-12-22T07:30:40;15.83;;;3.70;;
2944;SDS011;1482;51.398;7.128;2023-12-22T07:33:06;10.50;;;3.23;;
2944;SDS011;1482;51.398;7.128;2023-12-22T07:35:31;12.67;;;3.60;;
2944;SDS011;1482;51.398;7.128;2023-12-22T07:37:57;19.27;;;4.43;;
2944;SDS011;1482;51.398;7.128;2023-12-22T07:40:22;12.20;;;5.20;;
2944;SDS011;1482;51.398;7.128;2023-12-22T07:42:48;15.70;;;4.10;;
2944;SDS011;1482;51.398;7.128;2023-12-22T07:45:15;20.50;;;3.70;;
2944;SDS011;1482;51.398;7.128;2023-12-22T07:47:41;16.10;;;3.40;;
2944;SDS011;1482;51.398;7.128;2023-12-22T07:50:07;13.20;;;4.27;;
2944;SDS011;1482;51.398;7.128;2023-12-22T07:52:34;17.70;;;4.60;;
2944;SDS011;1482;51.398;7.128;2023-12-22T07:55:04;8.97;;;3.97;;
2944;SDS011;1482;51.398;7.128;2023-12-22T07:57:36;12.17;;;4.10;;
2944;SDS011;1482;51.398;7.128;2023-12-22T08:00:03;31.47;;;4.60;;
2944;SDS011;1482;51.398;7.128;2023-12-22T08:02:30;12.10;;;4.17;;
2944;SDS011;1482;51.398;7.128;2023-12-22T08:04:55;17.10;;;4.47;;
2944;SDS011;1482;51.398;7.128;2023-12-22T08:07:21;15.70;;;3.43;;
2944;SDS011;1482;51.398;7.128;2023-12-22T08:09:47;18.10;;;4.03;;
2944;SDS011;1482;51.398;7.128;2023-12-22T08:12:13;15.70;;;3.30;;
2944;SDS011;1482;51.398;7.128;2023-12-22T08:14:38;10.80;;;3.37;;
2944;SDS011;1482;51.398;7.128;2023-12-22T08:17:04;16.10;;;3.23;;
2944;SDS011;1482;51.398;7.128;2023-12-22T08:19:29;13.57;;;4.17;;
2944;SDS011;1482;51.398;7.128;2023-12-22T08:21:55;11.03;;;3.73;;
2944;SDS011;1482;51.398;7.128;2023-12-22T08:24:20;10.20;;;2.80;;
2944;SDS011;1482;51.398;7.128;2023-12-22T08:26:46;22.50;;;3.60;;
2944;SDS011;1482;51.398;7.128;2023-12-22T08:29:12;11.07;;;2.60;;
2944;SDS011;1482;51.398;7.128;2023-12-22T08:31:38;14.10;;;3.83;;
2944;SDS011;1482;51.398;7.128;2023-12-22T08:34:04;17.10;;;4.50;;
2944;SDS011;1482;51.398;7.128;2023-12-22T08:36:30;24.33;;;4.83;;
2944;SDS011;1482;51.398;7.128;2023-12-22T08:38:56;20.50;;;3.87;;
2944;SDS011;1482;51.398;7.128;2023-12-22T08:41:22;24.37;;;4.87;;
2944;SDS011;1482;51.398;7.128;2023-12-22T08:43:47;17.03;;;6.97;;
2944;SDS011;1482;51.398;7.128;2023-12-22T08:46:13;15.43;;;3.77;;
2944;SDS011;1482;51.398;7.128;2023-12-22T08:48:39;19.03;;;5.57;;
2944;SDS011;1482;51.398;7.128;2023-12-22T08:51:04;16.23;;;4.33;;
2944;SDS011;1482;51.398;7.128;2023-12-22T08:53:30;22.00;;;4.60;;
2944;SDS011;1482;51.398;7.128;2023-12-22T08:55:59;23.70;;;5.23;;
2944;SDS011;1482;51.398;7.128;2023-12-22T08:58:25;26.07;;;5.50;;
2944;SDS011;1482;51.398;7.128;2023-12-22T09:00:51;24.77;;;5.17;;
2944;SDS011;1482;51.398;7.128;2023-12-22T09:03:17;21.23;;;4.70;;
2944;SDS011;1482;51.398;7.128;2023-12-22T09:05:42;25.23;;;6.33;;
2944;SDS011;1482;51.398;7.128;2023-12-22T09:08:08;28.00;;;6.57;;
2944;SDS011;1482;51.398;7.128;2023-12-22T09:10:33;26.50;;;6.10;;
2944;SDS011;1482;51.398;7.128;2023-12-22T09:13:00;19.87;;;4.90;;
2944;SDS011;1482;51.398;7.128;2023-12-22T09:15:26;35.73;;;7.50;;
2944;SDS011;1482;51.398;7.128;2023-12-22T09:17:51;27.00;;;6.70;;
2944;SDS011;1482;51.398;7.128;2023-12-22T09:20:18;20.57;;;4.07;;
2944;SDS011;1482;51.398;7.128;2023-12-22T09:22:43;21.23;;;2.93;;
2944;SDS011;1482;51.398;7.128;2023-12-22T09:25:09;13.20;;;2.93;;
2944;SDS011;1482;51.398;7.128;2023-12-22T09:27:34;13.07;;;3.37;;
2944;SDS011;1482;51.398;7.128;2023-12-22T09:30:00;9.33;;;3.40;;
2944;SDS011;1482;51.398;7.128;2023-12-22T09:32:26;9.60;;;3.03;;
2944;SDS011;1482;51.398;7.128;2023-12-22T09:34:52;15.17;;;3.43;;
2944;SDS011;1482;51.398;7.128;2023-12-22T09:37:20;20.33;;;3.67;;
2944;SDS011;1482;51.398;7.128;2023-12-22T09:39:45;10.37;;;3.00;;
2944;SDS011;1482;51.398;7.128;2023-12-22T09:42:11;11.43;;;3.97;;
2944;SDS011;1482;51.398;7.128;2023-12-22T09:44:36;10.30;;;3.57;;
2944;SDS011;1482;51.398;7.128;2023-12-22T09:47:06;22.23;;;4.60;;
2944;SDS011;1482;51.398;7.128;2023-12-22T09:49:35;10.20;;;3.43;;
2944;SDS011;1482;51.398;7.128;2023-12-22T09:52:01;11.07;;;3.80;;
2944;SDS011;1482;51.398;7.128;2023-12-22T09:54:33;12.40;;;3.60;;
2944;SDS011;1482;51.398;7.128;2023-12-22T09:56:59;15.20;;;4.13;;
2944;SDS011;1482;51.398;7.128;2023-12-22T09:59:25;27.17;;;5.10;;
2944;SDS011;1482;51.398;7.128;2023-12-22T10:01:53;22.83;;;6.20;;
2944;SDS011;1482;51.398;7.128;2023-12-22T10:04:20;17.47;;;5.43;;
2944;SDS011;1482;51.398;7.128;2023-12-22T10:06:46;18.70;;;4.40;;
2944;SDS011;1482;51.398;7.128;2023-12-22T10:09:13;12.03;;;5.50;;
2944;SDS011;1482;51.398;7.128;2023-12-22T10:11:40;11.37;;;3.93;;
2944;SDS011;1482;51.398;7.128;2023-12-22T10:14:08;24.30;;;4.30;;
2944;SDS011;1482;51.398;7.128;2023-12-22T10:16:36;14.60;;;3.83;;
2944;SDS011;1482;51.398;7.128;2023-12-22T10:19:03;17.47;;;4.97;;
2944;SDS011;1482;51.398;7.128;2023-12-22T10:21:28;16.73;;;5.10;;
2944;SDS011;1482;51.398;7.128;2023-12-22T10:23:55;32.17;;;5.00;;
2944;SDS011;1482;51.398;7.128;2023-12-22T10:26:21;18.63;;;4.73;;
2944;SDS011;1482;51.398;7.128;2023-12-22T10:28:47;13.20;;;5.53;;
2944;SDS011;1482;51.398;7.128;2023-12-22T10:31:14;13.00;;;5.10;;
2944;SDS011;1482;51.398;7.128;2023-12-22T10:33:39;15.60;;;4.97;;
2944;SDS011;1482;51.398;7.128;2023-12-22T10:36:05;17.80;;;5.83;;
2944;SDS011;1482;51.398;7.128;2023-12-22T10:38:32;15.63;;;5.07;;
2944;SDS011;1482;51.398;7.128;2023-12-22T10:41:00;14.70;;;5.60;;
2944;SDS011;1482;51.398;7.128;2023-12-22T10:43:26;16.60;;;6.10;;
2944;SDS011;1482;51.398;7.128;2023-12-22T10:45:52;20.47;;;5.50;;
2944;SDS011;1482;51.398;7.128;2023-12-22T10:48:17;17.53;;;5.50;;
2944;SDS011;1482;51.398;7.128;2023-12-22T10:50:43;18.60;;;6.73;;
2944;SDS011;1482;51.398;7.128;2023-12-22T10:53:10;17.37;;;7.00;;
2944;SDS011;1482;51.398;7.128;2023-12-22T10:55:36;14.30;;;5.97;;
2944;SDS011;1482;51.398;7.128;2023-12-22T10:58:03;18.83;;;6.73;;
2944;SDS011;1482;51.398;7.128;2023-12-22T11:00:28;29.30;;;5.63;;
2944;SDS011;1482;51.398;7.128;2023-12-22T11:02:58;11.33;;;4.90;;
2944;SDS011;1482;51.398;7.128;2023-12-22T11:05:27;10.30;;;3.60;;
2944;SDS011;1482;51.398;7.128;2023-12-22T11:07:54;4.87;;;3.37;;
2944;SDS011;1482;51.398;7.128;2023-12-22T11:10:20;6.60;;;2.93;;
2944;SDS011;1482;51.398;7.128;2023-12-22T11:12:47;3.77;;;1.30;;
2944;SDS011;1482;51.398;7.128;2023-12-22T11:15:13;4.80;;;1.87;;
2944;SDS011;1482;51.398;7.128;2023-12-22T11:17:40;3.03;;;1.33;;
2944;SDS011;1482;51.398;7.128;2023-12-22T11:20:10;5.73;;;1.23;;
2944;SDS011;1482;51.398;7.128;2023-12-22T11:22:38;3.93;;;1.23;;
2944;SDS011;1482;51.398;7.128;2023-12-22T11:25:04;1.27;;;1.03;;
2944;SDS011;1482;51.398;7.128;2023-12-22T11:27:31;2.33;;;0.83;;
2944;SDS011;1482;51.398;7.128;2023-12-22T11:29:58;2.70;;;0.93;;
2944;SDS011;1482;51.398;7.128;2023-12-22T11:32:26;3.73;;;1.10;;
2944;SDS011;1482;51.398;7.128;2023-12-22T11:34:53;2.90;;;1.10;;
2944;SDS011;1482;51.398;7.128;2023-12-22T11:37:21;6.00;;;1.10;;
2944;SDS011;1482;51.398;7.128;2023-12-22T11:39:47;3.80;;;1.47;;
2944;SDS011;1482;51.398;7.128;2023-12-22T11:42:17;2.10;;;1.47;;
2944;SDS011;1482;51.398;7.128;2023-12-22T11:44:46;2.50;;;2.00;;
2944;SDS011;1482;51.398;7.128;2023-12-22T11:47:11;3.63;;;1.83;;
2944;SDS011;1482;51.398;7.128;2023-12-22T11:49:39;9.77;;;2.20;;
2944;SDS011;1482;51.398;7.128;2023-12-22T11:52:15;6.77;;;3.60;;
2944;SDS011;1482;51.398;7.128;2023-12-22T12:02:56;5.17;;;3.10;;
2944;SDS011;1482;51.398;7.128;2023-12-22T12:05:22;4.27;;;2.50;;
2944;SDS011;1482;51.398;7.128;2023-12-22T12:07:48;7.23;;;3.43;;
2944;SDS011;1482;51.398;7.128;2023-12-22T12:13:07;7.73;;;2.50;;
2944;SDS011;1482;51.398;7.128;2023-12-22T12:15:34;4.13;;;2.30;;
2944;SDS011;1482;51.398;7.128;2023-12-22T12:18:00;10.80;;;2.97;;
2944;SDS011;1482;51.398;7.128;2023-12-22T12:20:26;3.40;;;2.53;;
2944;SDS011;1482;51.398;7.128;2023-12-22T12:22:52;2.50;;;1.70;;
2944;SDS011;1482;51.398;7.128;2023-12-22T12:25:21;5.97;;;2.27;;
2944;SDS011;1482;51.398;7.128;2023-12-22T12:28:06;4.73;;;2.00;;
2944;SDS011;1482;51.398;7.128;2023-12-22T12:30:33;8.90;;;2.23;;
2944;SDS011;1482;51.398;7.128;2023-12-22T12:33:10;7.03;;;1.83;;
2944;SDS011;1482;51.398;7.128;2023-12-22T12:35:38;5.10;;;2.10;;
2944;SDS011;1482;51.398;7.128;2023-12-22T12:38:05;4.33;;;1.50;;
2944;SDS011;1482;51.398;7.128;2023-12-22T12:40:31;2.63;;;1.53;;
2944;SDS011;1482;51.398;7.128;2023-12-22T12:43:00;5.33;;;1.50;;
2944;SDS011;1482;51.398;7.128;2023-12-22T12:45:26;5.20;;;2.00;;
2944;SDS011;1482;51.398;7.128;2023-12-22T12:47:55;5.30;;;1.87;;
2944;SDS011;1482;51.398;7.128;2023-12-22T12:50:26;5.60;;;2.20;;
2944;SDS011;1482;51.398;7.128;2023-12-22T12:52:53;1.70;;;1.53;;
2944;SDS011;1482;51.398;7.128;2023-12-22T12:55:20;3.50;;;2.10;;
2944;SDS011;1482;51.398;7.128;2023-12-22T12:57:49;4.07;;;1.20;;
2944;SDS011;1482;51.398;7.128;2023-12-22T13:00:31;3.03;;;1.90;;
2944;SDS011;1482;51.398;7.128;2023-12-22T13:03:01;4.57;;;1.30;;
2944;SDS011;1482;51.398;7.128;2023-12-22T13:05:27;4.30;;;2.80;;
2944;SDS011;1482;51.398;7.128;2023-12-22T13:08:05;3.10;;;1.17;;
2944;SDS011;1482;51.398;7.128;2023-12-22T13:10:32;2.50;;;1.20;;
2944;SDS011;1482;51.398;7.128;2023-12-22T13:12:58;4.17;;;1.90;;
2944;SDS011;1482;51.398;7.128;2023-12-22T13:15:24;3.27;;;1.40;;
2944;SDS011;1482;51.398;7.128;2023-12-22T13:17:49;3.83;;;1.67;;
2944;SDS011;1482;51.398;7.128;2023-12-22T13:20:15;4.70;;;2.10;;
2944;SDS011;1482;51.398;7.128;2023-12-22T13:22:43;4.40;;;1.40;;
2944;SDS011;1482;51.398;7.128;2023-12-22T13:25:09;4.53;;;1.50;;
2944;SDS011;1482;51.398;7.128;2023-12-22T13:27:46;2.50;;;1.60;;
2944;SDS011;1482;51.398;7.128;2023-12-22T13:30:31;4.63;;;1.53;;
2944;SDS011;1482;51.398;7.128;2023-12-22T13:32:56;2.73;;;1.57;;
2944;SDS011;1482;51.398;7.128;2023-12-22T13:35:25;3.13;;;2.00;;
2944;SDS011;1482;51.398;7.128;2023-12-22T13:37:52;5.90;;;1.60;;
2944;SDS011;1482;51.398;7.128;2023-12-22T13:40:18;2.13;;;1.50;;
2944;SDS011;1482;51.398;7.128;2023-12-22T13:42:44;3.10;;;1.87;;
2944;SDS011;1482;51.398;7.128;2023-12-22T13:45:10;6.03;;;2.30;;
2944;SDS011;1482;51.398;7.128;2023-12-22T13:47:40;2.40;;;2.30;;
2944;SDS011;1482;51.398;7.128;2023-12-22T13:50:13;8.23;;;3.13;;
2944;SDS011;1482;51.398;7.128;2023-12-22T13:52:39;4.77;;;2.43;;
2944;SDS011;1482;51.398;7.128;2023-12-22T13:55:11;8.90;;;2.90;;
2944;SDS011;1482;51.398;7.128;2023-12-22T13:57:38;4.80;;;3.07;;
2944;SDS011;1482;51.398;7.128;2023-12-22T14:02:48;2.90;;;2.30;;
2944;SDS011;1482;51.398;7.128;2023-12-22T14:05:14;5.10;;;2.87;;
2944;SDS011;1482;51.398;7.128;2023-12-22T14:07:40;8.90;;;4.27;;
2944;SDS011;1482;51.398;7.128;2023-12-22T14:10:06;6.07;;;2.80;;
2944;SDS011;1482;51.398;7.128;2023-12-22T14:12:32;8.17;;;3.90;;
2944;SDS011;1482;51.398;7.128;2023-12-22T14:14:58;7.13;;;2.47;;
2944;SDS011;1482;51.398;7.128;2023-12-22T14:17:23;2.40;;;2.20;;
2944;SDS011;1482;51.398;7.128;2023-12-22T14:19:49;7.83;;;2.60;;
2944;SDS011;1482;51.398;7.128;2023-12-22T14:22:15;4.47;;;2.60;;
2944;SDS011;1482;51.398;7.128;2023-12-22T14:24:40;3.70;;;2.40;;
2944;SDS011;1482;51.398;7.128;2023-12-22T14:27:06;6.33;;;2.80;;
2944;SDS011;1482;51.398;7.128;2023-12-22T14:29:31;2.20;;;1.90;;
2944;SDS011;1482;51.398;7.128;2023-12-22T14:31:58;5.47;;;2.40;;
2944;SDS011;1482;51.398;7.128;2023-12-22T14:34:24;4.87;;;2.47;;
2944;SDS011;1482;51.398;7.128;2023-12-22T14:36:49;7.93;;;2.27;;
2944;SDS011;1482;51.398;7.128;2023-12-22T14:39:15;6.03;;;2.17;;
2944;SDS011;1482;51.398;7.128;2023-12-22T14:41:40;5.70;;;1.93;;
2944;SDS011;1482;51.398;7.128;2023-12-22T14:44:07;11.53;;;3.30;;
2944;SDS011;1482;51.398;7.128;2023-12-22T14:46:39;2.70;;;1.70;;
2944;SDS011;1482;51.398;7.128;2023-12-22T14:49:05;2.23;;;1.80;;
2944;SDS011;1482;51.398;7.128;2023-12-22T14:51:38;9.93;;;2.47;;
2944;SDS011;1482;51.398;7.128;2023-12-22T14:54:07;8.13;;;2.33;;
2944;SDS011;1482;51.398;7.128;2023-12-22T14:56:38;5.83;;;1.97;;
2944;SDS011;1482;51.398;7.128;2023-12-22T14:59:05;1.60;;;1.40;;
2944;SDS011;1482;51.398;7.128;2023-12-22T15:01:36;6.83;;;1.80;;
2944;SDS011;1482;51.398;7.128;2023-12-22T15:04:03;9.57;;;2.17;;
2944;SDS011;1482;51.398;7.128;2023-12-22T15:06:30;1.93;;;1.70;;
2944;SDS011;1482;51.398;7.128;2023-12-22T15:08:56;4.67;;;2.10;;
2944;SDS011;1482;51.398;7.128;2023-12-22T15:11:24;9.07;;;2.30;;
2944;SDS011;1482;51.398;7.128;2023-12-22T15:13:50;8.90;;;2.30;;
2944;SDS011;1482;51.398;7.128;2023-12-22T15:16:15;17.10;;;2.80;;
2944;SDS011;1482;51.398;7.128;2023-12-22T15:18:41;2.73;;;2.00;;
2944;SDS011;1482;51.398;7.128;2023-12-22T15:21:06;7.43;;;2.37;;
2944;SDS011;1482;51.398;7.128;2023-12-22T15:23:32;5.63;;;1.60;;